Time;durP1;ratioP1;P1;durP2;ratioP2;P2;SDS_P1;SDS_P2;PMS_P1;PMS_P2;Temp;Humidity;BMP_temperature;BMP_pressure;BME280_temperature;BME280_humidity;BME280_pressure;Samples;Min_cycle;Max_cycle;Signal;HPM_P1;HPM_P2
2022/03/26 00:01:36;;;;;;;;;52.25;42.25;;;;;16.30;41.30;102404.97;4994299;28;46152;-80
2022/03/26 00:04:02;;;;;;;;;48.00;40.00;;;;;16.13;41.73;102386.75;4993907;28;45347;-78
2022/03/26 00:06:27;;;;;;;;;53.50;40.25;;;;;16.18;42.07;102415.72;4994387;28;45441;-84
2022/03/26 00:08:53;;;;;;;;;54.75;42.75;;;;;16.05;42.03;102390.72;4994739;28;45361;-83
2022/03/26 00:11:19;;;;;;;;;58.50;44.50;;;;;15.91;42.01;102379.63;4993620;28;45962;-81
2022/03/26 00:13:45;;;;;;;;;50.75;40.25;;;;;16.03;41.94;102403.72;4994038;27;45314;-85
2022/03/26 00:16:11;;;;;;;;;53.25;42.75;;;;;16.02;42.36;102408.88;4994194;28;45368;-84
2022/03/26 00:18:38;;;;;;;;;54.75;41.75;;;;;16.00;42.30;102408.81;4994486;28;45419;-80
2022/03/26 00:21:04;;;;;;;;;42.25;35.75;;;;;15.90;42.88;102390.91;4993632;28;45999;-81
2022/03/26 00:23:29;;;;;;;;;53.75;41.50;;;;;15.83;42.98;102376.59;4997211;28;45794;-77
2022/03/26 00:25:58;;;;;;;;;54.00;41.00;;;;;15.90;43.09;102406.56;4998169;27;45345;-77
2022/03/26 00:28:24;;;;;;;;;49.00;39.75;;;;;15.87;43.04;102409.94;4996173;28;45315;-82
2022/03/26 00:30:50;;;;;;;;;50.75;42.00;;;;;15.71;43.11;102394.28;4995235;28;45915;-76
2022/03/26 00:33:16;;;;;;;;;52.50;42.25;;;;;15.79;43.42;102404.28;4993739;27;45343;-78
2022/03/26 00:35:42;;;;;;;;;52.50;40.25;;;;;15.77;43.37;102408.53;4994027;28;45367;-79
2022/03/26 00:38:08;;;;;;;;;54.00;44.00;;;;;15.74;42.94;102416.22;4993930;28;45378;-79
2022/03/26 00:40:34;;;;;;;;;56.75;43.00;;;;;15.58;43.59;102384.97;4993498;27;45999;-82
2022/03/26 00:43:00;;;;;;;;;40.00;32.50;;;;;15.72;43.03;102393.47;4993596;28;45321;-87
2022/03/26 00:45:27;;;;;;;;;54.00;42.00;;;;;15.57;43.48;102378.81;4994218;28;45291;-76
2022/03/26 00:47:53;;;;;;;;;52.25;41.25;;;;;15.75;43.38;102404.06;4994223;28;45717;-81
2022/03/26 00:50:18;;;;;;;;;50.00;39.75;;;;;15.61;43.52;102383.38;4993493;28;46065;-82
2022/03/26 00:52:44;;;;;;;;;54.00;40.50;;;;;15.66;43.40;102390.56;4993993;27;45375;-81
2022/03/26 00:55:10;;;;;;;;;54.00;42.00;;;;;15.64;43.76;102385.25;4993571;28;45292;-78
2022/03/26 00:57:36;;;;;;;;;50.25;38.75;;;;;15.62;43.29;102392.09;4994063;28;45548;-77
2022/03/26 01:00:04;;;;;;;;;45.25;38.00;;;;;15.60;43.36;102388.53;4993141;28;45576;-78
2022/03/26 01:02:30;;;;;;;;;47.25;37.50;;;;;15.58;43.65;102398.00;4993613;28;45257;-79
2022/03/26 01:04:55;;;;;;;;;49.75;40.00;;;;;15.56;44.13;102400.53;4993201;28;45174;-75
2022/03/26 01:07:21;;;;;;;;;54.50;42.50;;;;;15.48;44.11;102392.34;4994436;28;45269;-80
2022/03/26 01:09:47;;;;;;;;;51.25;41.00;;;;;15.48;44.04;102399.25;4994833;27;45984;-77
2022/03/26 01:12:12;;;;;;;;;51.75;42.00;;;;;15.37;43.91;102383.06;4976177;28;45273;-76
2022/03/26 01:14:38;;;;;;;;;51.25;41.75;;;;;15.42;44.20;102394.63;4994084;28;45406;-76
2022/03/26 01:17:04;;;;;;;;;42.75;36.75;;;;;15.39;44.26;102388.34;4999024;28;45355;-76
2022/03/26 01:19:29;;;;;;;;;54.50;43.00;;;;;15.28;44.16;102380.00;4994964;27;46073;-76
2022/03/26 01:21:55;;;;;;;;;53.00;41.50;;;;;15.37;44.22;102398.72;4993691;28;45299;-75
2022/03/26 01:24:20;;;;;;;;;48.50;39.00;;;;;15.33;44.79;102388.94;4993853;28;45424;-76
2022/03/26 01:26:46;;;;;;;;;48.25;38.50;;;;;15.34;44.52;102390.72;4996233;28;45564;-76
2022/03/26 01:29:12;;;;;;;;;54.00;37.75;;;;;15.33;44.47;102399.38;4995533;27;46087;-75
2022/03/26 01:31:38;;;;;;;;;46.50;37.75;;;;;15.31;44.43;102395.78;4978537;28;46039;-78
2022/03/26 01:34:04;;;;;;;;;52.00;41.00;;;;;15.26;45.06;102387.72;4978252;28;45408;-77
2022/03/26 01:36:30;;;;;;;;;51.00;39.50;;;;;15.12;44.45;102368.78;4996246;28;45540;-80
2022/03/26 01:38:55;;;;;;;;;44.50;35.25;;;;;15.16;45.15;102383.78;4996100;27;45267;-76
2022/03/26 01:41:21;;;;;;;;;52.75;40.75;;;;;15.17;45.31;102392.47;4996129;28;45179;-76
2022/03/26 01:43:47;;;;;;;;;58.00;42.75;;;;;15.11;45.37;102382.63;4996174;28;45329;-79
2022/03/26 01:46:12;;;;;;;;;46.00;37.50;;;;;14.98;45.26;102359.31;4995954;28;45236;-77
2022/03/26 01:48:39;;;;;;;;;49.50;40.25;;;;;15.05;45.01;102371.91;4995596;27;45424;-80
2022/03/26 01:51:17;;;;;;;;;50.00;37.25;;;;;15.08;45.58;102377.25;4977866;28;45995;-77
2022/03/26 01:53:48;;;;;;;;;48.00;38.25;;;;;15.02;45.19;102363.91;4997791;28;45365;-76
2022/03/26 01:56:14;;;;;;;;;49.00;38.75;;;;;15.00;45.63;102363.84;4997061;28;45449;-78
2022/03/26 01:58:41;;;;;;;;;47.00;37.75;;;;;15.08;45.35;102377.25;4996593;27;45387;-76
2022/03/26 02:01:07;;;;;;;;;49.50;39.00;;;;;14.96;45.26;102361.88;4995645;28;45277;-77
2022/03/26 02:03:33;;;;;;;;;49.50;40.00;;;;;14.97;45.22;102361.06;4995824;28;45213;-79
2022/03/26 02:05:59;;;;;;;;;42.75;34.75;;;;;14.92;45.61;102359.03;4995592;28;45474;-77
2022/03/26 02:08:25;;;;;;;;;51.75;40.25;;;;;14.83;45.29;102339.47;4978023;28;47664;-78
2022/03/26 02:10:50;;;;;;;;;53.25;40.50;;;;;15.00;45.52;102371.66;4995875;28;45228;-80
2022/03/26 02:13:16;;;;;;;;;51.75;41.00;;;;;14.95;45.65;102359.19;4995715;28;45299;-78
2022/03/26 02:15:43;;;;;;;;;47.75;37.25;;;;;14.94;45.68;102368.72;4995874;28;45501;-77
2022/03/26 02:18:09;;;;;;;;;48.00;37.25;;;;;14.90;46.06;102355.44;4995257;28;46204;-78
2022/03/26 02:20:35;;;;;;;;;55.50;42.75;;;;;14.91;46.39;102360.72;4996890;28;45921;-77
2022/03/26 02:23:01;;;;;;;;;50.75;39.25;;;;;14.88;46.17;102367.50;4980197;28;45512;-76
2022/03/26 02:25:28;;;;;;;;;50.75;40.25;;;;;14.90;46.13;102361.53;4995921;28;45534;-76
2022/03/26 02:27:54;;;;;;;;;52.75;42.25;;;;;14.80;46.24;102347.13;4995300;28;45252;-78
2022/03/26 02:30:20;;;;;;;;;47.50;38.25;;;;;14.79;45.87;102347.94;4994981;28;45823;-77
2022/03/26 02:32:47;;;;;;;;;51.50;40.75;;;;;14.83;46.19;102362.03;4995235;27;45315;-78
2022/03/26 02:35:13;;;;;;;;;45.00;36.75;;;;;14.72;46.65;102352.75;4995151;28;45465;-78
2022/03/26 02:37:39;;;;;;;;;49.75;40.00;;;;;14.71;46.26;102357.09;4997513;28;45365;-77
2022/03/26 02:40:07;;;;;;;;;52.25;42.50;;;;;14.63;46.63;102345.34;4998054;27;45858;-77
2022/03/26 02:42:37;;;;;;;;;44.75;34.00;;;;;14.64;46.81;102344.50;4978223;28;45429;-77
2022/03/26 02:45:05;;;;;;;;;54.00;42.50;;;;;14.59;47.00;102349.47;4995513;28;45569;-76
2022/03/26 02:47:31;;;;;;;;;49.25;40.25;;;;;14.62;46.82;102354.84;4994858;28;45452;-76
2022/03/26 02:49:56;;;;;;;;;52.75;42.75;;;;;14.57;47.06;102345.91;4994715;28;45399;-77
2022/03/26 02:52:23;;;;;;;;;48.50;38.75;;;;;14.60;46.89;102355.59;4995414;27;45444;-76
2022/03/26 02:54:48;;;;;;;;;52.00;42.00;;;;;14.59;46.93;102351.19;4995328;28;45244;-80
2022/03/26 02:57:14;;;;;;;;;53.00;41.00;;;;;14.58;47.34;102358.09;4994454;28;46003;-80
2022/03/26 02:59:39;;;;;;;;;53.00;40.50;;;;;14.55;47.37;102355.34;4994852;28;45434;-77
2022/03/26 03:02:07;;;;;;;;;50.50;38.75;;;;;14.49;47.59;102357.59;4995106;28;45492;-77
2022/03/26 03:04:34;;;;;;;;;54.75;42.50;;;;;14.41;47.72;102349.41;4995065;28;45236;-79
2022/03/26 03:07:00;;;;;;;;;54.50;42.00;;;;;14.37;48.02;102345.72;4976731;28;46928;-81
2022/03/26 03:09:25;;;;;;;;;55.25;42.25;;;;;14.37;47.92;102352.66;4994787;28;45374;-77
2022/03/26 03:11:51;;;;;;;;;50.50;40.75;;;;;14.34;48.73;102350.78;4995398;28;45461;-78
2022/03/26 03:14:18;;;;;;;;;54.00;44.00;;;;;14.32;48.06;102348.88;4994918;27;45303;-78
2022/03/26 03:16:45;;;;;;;;;57.25;44.50;;;;;14.22;48.36;102342.28;4994517;27;45337;-80
2022/03/26 03:19:11;;;;;;;;;50.50;40.75;;;;;14.14;48.66;102326.25;4994455;27;45271;-81
2022/03/26 03:21:37;;;;;;;;;49.25;38.25;;;;;13.95;48.68;102294.81;4998027;28;45307;-77
2022/03/26 03:24:02;;;;;;;;;52.00;43.00;;;;;14.14;48.79;102336.66;4998495;27;45557;-81
2022/03/26 03:26:29;;;;;;;;;53.00;41.50;;;;;14.19;49.04;102357.75;5005612;28;45981;-77
2022/03/26 03:28:54;;;;;;;;;54.50;42.75;;;;;14.15;49.21;102354.09;5003521;28;45338;-77
2022/03/26 03:31:20;;;;;;;;;52.25;40.75;;;;;14.16;49.38;102357.56;4998821;27;45326;-79
2022/03/26 03:33:46;;;;;;;;;56.25;43.50;;;;;14.11;49.57;102344.28;4997077;28;45318;-78
2022/03/26 03:36:12;;;;;;;;;52.00;41.25;;;;;14.16;49.21;102354.97;4994298;27;46562;-81
2022/03/26 03:38:38;;;;;;;;;52.00;41.50;;;;;14.14;48.97;102352.28;4976810;28;45549;-84
2022/03/26 03:41:04;;;;;;;;;57.50;44.00;;;;;14.19;49.33;102358.66;4994169;28;45384;-76
2022/03/26 03:43:29;;;;;;;;;51.50;40.50;;;;;14.17;49.96;102361.97;4994861;28;45402;-77
2022/03/26 03:45:55;;;;;;;;;53.50;41.75;;;;;14.05;49.76;102346.56;4994386;28;46083;-78
2022/03/26 03:48:21;;;;;;;;;54.75;43.00;;;;;13.99;50.00;102347.13;4994413;27;45488;-83
2022/03/26 03:50:47;;;;;;;;;53.50;41.50;;;;;14.09;49.44;102359.84;4994444;28;45443;-78
2022/03/26 03:53:15;;;;;;;;;55.00;44.25;;;;;14.05;49.59;102363.09;4994475;28;45482;-78
2022/03/26 03:55:41;;;;;;;;;55.75;43.50;;;;;14.07;50.09;102363.19;4994272;28;45458;-78
2022/03/26 03:58:07;;;;;;;;;56.75;41.25;;;;;14.01;50.36;102362.81;4993931;28;45315;-80
2022/03/26 04:00:32;;;;;;;;;51.00;42.50;;;;;13.97;50.68;102368.69;4976660;28;45442;-79
2022/03/26 04:03:00;;;;;;;;;52.50;42.00;;;;;13.95;50.70;102372.91;4995297;28;45446;-79
2022/03/26 04:05:26;;;;;;;;;53.25;41.50;;;;;13.87;50.72;102362.97;4999368;27;45293;-77
2022/03/26 04:07:51;;;;;;;;;54.50;41.00;;;;;13.86;51.12;102378.50;4998376;28;45222;-78
2022/03/26 04:10:17;;;;;;;;;53.00;40.75;;;;;13.84;50.83;102374.91;4994803;28;45229;-79
2022/03/26 04:12:44;;;;;;;;;54.25;43.75;;;;;13.81;50.88;102373.03;4995444;28;45596;-77
2022/03/26 04:15:11;;;;;;;;;56.50;42.50;;;;;13.83;51.25;102373.09;4993508;28;46081;-78
2022/03/26 04:17:37;;;;;;;;;55.00;43.50;;;;;13.84;50.97;102375.81;4993992;28;45902;-81
2022/03/26 04:20:08;;;;;;;;;53.50;41.50;;;;;13.74;51.27;102357.88;4993923;28;45339;-78
2022/03/26 04:22:35;;;;;;;;;50.25;39.50;;;;;13.82;51.46;102379.16;4994594;28;45395;-80
2022/03/26 04:25:01;;;;;;;;;54.00;42.00;;;;;13.65;51.50;102353.03;4993761;28;45662;-80
2022/03/26 04:27:26;;;;;;;;;57.50;43.25;;;;;13.78;51.70;102385.84;4993545;28;45356;-79
2022/03/26 04:29:52;;;;;;;;;57.25;45.00;;;;;13.64;51.70;102360.78;4994075;28;45264;-78
2022/03/26 04:32:18;;;;;;;;;55.50;44.00;;;;;13.71;51.76;102376.84;4993841;28;45364;-77
2022/03/26 04:34:43;;;;;;;;;58.00;45.00;;;;;13.58;51.78;102362.19;4993512;28;45917;-79
2022/03/26 04:37:09;;;;;;;;;53.25;41.25;;;;;13.63;52.11;102365.06;4975605;28;45292;-79
2022/03/26 04:39:37;;;;;;;;;54.50;42.25;;;;;13.44;52.01;102337.09;4976005;28;45237;-78
2022/03/26 04:42:03;;;;;;;;;54.25;41.75;;;;;13.43;51.96;102343.13;4993664;28;45170;-78
2022/03/26 04:44:29;;;;;;;;;58.75;44.75;;;;;13.58;52.45;102363.91;4993636;27;45918;-77
2022/03/26 04:46:54;;;;;;;;;53.50;42.25;;;;;13.53;52.33;102347.13;4994632;28;45495;-76
2022/03/26 04:49:20;;;;;;;;;53.50;42.75;;;;;13.54;52.20;102362.84;4997848;28;45987;-77
2022/03/26 04:51:46;;;;;;;;;32.25;25.50;;;;;13.56;52.10;102365.53;4996644;28;45460;-78
2022/03/26 04:54:12;;;;;;;;;56.25;43.25;;;;;13.64;52.17;102377.25;4993507;27;45366;-83
2022/03/26 04:56:37;;;;;;;;;57.50;45.25;;;;;13.55;52.25;102362.00;4995645;28;45322;-77
2022/03/26 04:59:03;;;;;;;;;57.00;43.50;;;;;13.53;52.34;102362.75;4994064;28;45327;-77
2022/03/26 05:01:29;;;;;;;;;56.00;45.50;;;;;13.55;52.27;102377.63;4993768;28;45331;-77
2022/03/26 05:03:54;;;;;;;;;53.75;42.50;;;;;13.47;52.47;102373.69;4993545;28;46183;-77
2022/03/26 05:06:20;;;;;;;;;56.25;44.75;;;;;13.31;52.49;102348.44;4993008;27;45370;-77
2022/03/26 05:08:45;;;;;;;;;54.50;43.25;;;;;13.50;52.64;102378.19;4993460;28;45401;-77
2022/03/26 05:11:12;;;;;;;;;51.25;40.75;;;;;13.49;52.68;102372.06;4993138;28;45498;-77
2022/03/26 05:13:37;;;;;;;;;53.25;43.00;;;;;13.45;52.27;102364.88;4992944;27;45724;-78
2022/03/26 05:16:03;;;;;;;;;57.50;47.00;;;;;13.51;52.79;102379.97;4992829;27;45240;-76
2022/03/26 05:18:29;;;;;;;;;55.25;42.50;;;;;13.47;52.65;102384.09;4993107;28;45379;-77
2022/03/26 05:20:58;;;;;;;;;56.50;44.00;;;;;13.36;52.81;102366.94;4993614;27;45521;-77
2022/03/26 05:23:25;;;;;;;;;56.75;44.50;;;;;13.48;52.89;102395.41;4993236;27;46187;-77
2022/03/26 05:25:51;;;;;;;;;58.25;45.50;;;;;13.45;52.75;102388.31;4993225;28;45238;-77
2022/03/26 05:28:16;;;;;;;;;60.75;46.25;;;;;13.41;52.66;102386.34;4992737;28;45253;-77
2022/03/26 05:30:42;;;;;;;;;55.75;42.00;;;;;13.39;52.75;102393.13;4993636;27;45249;-76
2022/03/26 05:33:08;;;;;;;;;56.75;45.25;;;;;13.38;52.64;102392.25;4993538;28;45901;-76
2022/03/26 05:35:34;;;;;;;;;57.50;45.50;;;;;13.35;52.72;102397.25;4993039;28;45446;-79
2022/03/26 05:38:00;;;;;;;;;56.00;43.25;;;;;13.13;52.95;102366.47;4995322;28;45260;-76
2022/03/26 05:40:26;;;;;;;;;54.50;45.00;;;;;13.27;53.39;102396.81;5000420;28;45546;-75
2022/03/26 05:42:52;;;;;;;;;49.25;37.25;;;;;13.25;53.22;102411.41;4993697;28;45520;-76
2022/03/26 05:45:19;;;;;;;;;54.25;43.50;;;;;13.25;53.42;102415.72;4992766;28;45320;-75
2022/03/26 05:47:48;;;;;;;;;55.75;43.00;;;;;13.19;53.33;102403.25;4992953;28;45360;-77
2022/03/26 05:50:14;;;;;;;;;49.25;39.75;;;;;13.22;53.60;102412.94;4992785;28;45483;-78
2022/03/26 05:52:40;;;;;;;;;57.75;45.00;;;;;13.08;53.48;102391.31;4992716;28;45994;-81
2022/03/26 05:55:06;;;;;;;;;57.50;45.00;;;;;13.14;53.91;102408.19;4992342;28;45638;-81
2022/03/26 05:57:33;;;;;;;;;53.50;43.00;;;;;13.19;53.50;102413.66;4992840;28;45340;-78
2022/03/26 05:59:58;;;;;;;;;54.50;44.00;;;;;13.15;53.78;102403.88;4992680;28;45578;-78
2022/03/26 06:02:24;;;;;;;;;56.75;45.50;;;;;13.16;53.74;102416.97;4992773;28;45367;-76
2022/03/26 06:04:50;;;;;;;;;56.75;44.50;;;;;13.16;54.01;102416.06;4992635;27;45220;-80
2022/03/26 06:07:15;;;;;;;;;56.75;44.50;;;;;13.15;54.35;102410.00;5006176;27;45438;-79
2022/03/26 06:09:41;;;;;;;;;58.00;46.25;;;;;13.23;54.30;102414.72;4993064;28;45244;-82
2022/03/26 06:12:07;;;;;;;;;57.00;45.25;;;;;13.13;54.19;102395.06;5021066;27;45421;-81
2022/03/26 06:14:34;;;;;;;;;55.50;44.75;;;;;13.24;53.99;102419.13;5000457;27;45243;-83
2022/03/26 06:17:00;;;;;;;;;61.00;46.25;;;;;13.21;53.97;102419.84;5000169;28;45273;-84
2022/03/26 06:19:26;;;;;;;;;54.75;42.25;;;;;13.25;53.93;102432.22;4983706;28;45550;-79
2022/03/26 06:21:52;;;;;;;;;59.50;45.25;;;;;13.27;53.83;102432.34;5001111;28;46164;-84
2022/03/26 06:24:18;;;;;;;;;58.75;43.75;;;;;13.33;54.42;102437.88;5001052;28;45910;-85
2022/03/26 06:26:44;;;;;;;;;58.75;44.50;;;;;13.30;54.22;102430.81;4998390;28;45522;-85
2022/03/26 06:29:12;;;;;;;;;52.75;41.00;;;;;13.31;53.76;102443.00;5007517;27;45612;-86
2022/03/26 06:31:38;;;;;;;;;57.00;45.00;;;;;13.27;53.89;102447.94;4996728;28;46436;-86
2022/03/26 06:34:04;;;;;;;;;60.50;46.00;;;;;13.25;54.30;102445.22;4995491;28;46016;-84
2022/03/26 06:36:30;;;;;;;;;57.50;46.00;;;;;13.22;54.31;102441.56;4996260;27;45381;-82
2022/03/26 06:38:56;;;;;;;;;56.75;43.25;;;;;13.24;54.46;102445.16;4997396;28;45524;-83
2022/03/26 06:41:23;;;;;;;;;59.00;45.00;;;;;13.14;54.74;102444.59;4995639;27;45355;-82
2022/03/26 06:43:49;;;;;;;;;57.50;45.00;;;;;13.04;54.58;102428.31;4994979;28;45444;-86
2022/03/26 06:46:14;;;;;;;;;52.25;42.50;;;;;13.09;54.90;102447.72;4996205;28;45406;-80
2022/03/26 06:48:41;;;;;;;;;59.00;45.75;;;;;12.94;55.06;102419.97;4995835;28;45418;-85
2022/03/26 06:51:10;;;;;;;;;54.25;42.50;;;;;13.18;55.08;102453.47;4994608;28;46139;-81
2022/03/26 06:53:36;;;;;;;;;55.50;43.50;;;;;13.14;54.70;102446.28;4995406;27;45402;-80
2022/03/26 06:56:04;;;;;;;;;58.00;44.75;;;;;13.19;54.78;102457.88;4995134;28;45331;-81
2022/03/26 06:58:30;;;;;;;;;56.25;42.75;;;;;13.24;54.24;102469.44;4979961;28;45355;-83
2022/03/26 07:00:58;;;;;;;;;61.00;47.00;;;;;13.20;54.44;102467.47;4999613;28;45921;-76
2022/03/26 07:03:24;;;;;;;;;58.75;46.00;;;;;13.15;55.27;102455.88;4999354;28;45963;-82
2022/03/26 07:05:50;;;;;;;;;62.75;45.25;;;;;13.12;55.22;102460.91;4997075;27;45384;-80
2022/03/26 07:08:16;;;;;;;;;55.00;44.00;;;;;12.87;54.87;102411.69;4996430;27;45369;-79
2022/03/26 07:10:45;;;;;;;;;61.50;46.50;;;;;13.11;55.04;102460.00;4995003;27;45408;-87
2022/03/26 07:13:11;;;;;;;;;56.75;46.00;;;;;13.24;55.21;102481.56;4994955;28;45459;-82
2022/03/26 07:15:37;;;;;;;;;59.00;44.25;;;;;13.19;55.24;102476.06;4998659;28;45339;-81
2022/03/26 07:18:03;;;;;;;;;64.25;47.00;;;;;13.18;55.67;102482.09;4998140;27;45445;-78
2022/03/26 07:20:28;;;;;;;;;58.25;45.50;;;;;13.22;55.30;102489.28;4996358;28;45909;-79
2022/03/26 07:22:54;;;;;;;;;58.75;45.50;;;;;13.24;55.07;102489.38;4995456;28;45443;-81
2022/03/26 07:25:19;;;;;;;;;57.00;44.25;;;;;13.27;54.86;102490.44;4996017;27;45398;-87
2022/03/26 07:27:45;;;;;;;;;58.50;45.25;;;;;13.34;54.16;102489.13;4996177;27;45497;-84
2022/03/26 07:30:11;;;;;;;;;58.00;44.00;;;;;13.37;53.31;102485.78;4996007;28;45897;-78
2022/03/26 07:32:37;;;;;;;;;56.25;41.50;;;;;13.49;53.07;102494.38;4980274;28;45616;-80
2022/03/26 07:35:03;;;;;;;;;53.75;43.50;;;;;13.43;52.84;102476.69;5013827;28;45385;-76
2022/03/26 07:37:29;;;;;;;;;50.00;39.25;;;;;13.63;52.64;102497.78;5005154;27;46001;-77
2022/03/26 07:39:56;;;;;;;;;53.75;42.50;;;;;13.56;51.88;102474.81;4983480;28;45279;-82
2022/03/26 07:42:22;;;;;;;;;60.25;46.00;;;;;13.62;52.05;102481.28;4998878;28;45304;-78
2022/03/26 07:44:48;;;;;;;;;54.50;41.50;;;;;13.67;51.69;102483.25;4998399;28;45421;-79
2022/03/26 07:47:13;;;;;;;;;58.25;45.00;;;;;13.73;51.67;102487.13;5000272;28;45312;-84
2022/03/26 07:49:39;;;;;;;;;56.25;42.75;;;;;13.64;51.52;102473.56;4999474;28;45330;-82
2022/03/26 07:52:05;;;;;;;;;51.75;41.25;;;;;13.79;51.13;102499.59;5007861;28;45302;-78
2022/03/26 07:54:31;;;;;;;;;56.25;44.00;;;;;13.77;51.50;102489.09;5004537;27;45378;-83
2022/03/26 07:56:56;;;;;;;;;59.00;44.50;;;;;13.74;51.40;102483.72;4999406;28;45505;-83
2022/03/26 07:59:22;;;;;;;;;53.25;42.50;;;;;13.74;51.62;102470.69;4995913;27;45448;-84
2022/03/26 08:01:48;;;;;;;;;56.75;42.50;;;;;13.89;51.56;102503.66;4996000;28;45940;-77
2022/03/26 08:04:14;;;;;;;;;52.50;43.25;;;;;13.91;51.27;102499.44;4994375;28;45325;-80
2022/03/26 08:06:39;;;;;;;;;55.25;42.75;;;;;13.90;51.24;102497.63;4996791;27;45306;-84
2022/03/26 08:09:05;;;;;;;;;54.25;43.25;;;;;13.90;51.06;102501.13;5005659;28;45546;-77
2022/03/26 08:11:31;;;;;;;;;54.25;41.75;;;;;13.93;51.26;102501.31;4995317;27;45421;-75
2022/03/26 08:13:57;;;;;;;;;55.00;41.50;;;;;14.01;51.30;102506.06;4994161;28;45375;-76
2022/03/26 08:16:23;;;;;;;;;56.50;42.25;;;;;14.08;51.17;102503.03;4978680;28;45273;-74
2022/03/26 08:18:48;;;;;;;;;54.25;43.25;;;;;14.13;50.83;102504.16;4995004;28;46250;-78
2022/03/26 08:21:15;;;;;;;;;57.00;44.75;;;;;14.04;49.91;102477.59;4986343;28;45590;-78
2022/03/26 08:23:41;;;;;;;;;51.75;40.25;;;;;14.20;50.16;102508.91;4977543;28;45688;-78
2022/03/26 08:26:19;;;;;;;;;58.50;45.50;;;;;14.04;49.82;102467.19;4996322;27;45460;-79
2022/03/26 08:28:45;;;;;;;;;54.50;41.25;;;;;14.03;49.24;102462.78;4995664;28;46135;-80
2022/03/26 08:31:13;;;;;;;;;54.00;42.75;;;;;14.16;49.56;102480.91;4994937;27;45783;-83
2022/03/26 08:33:39;;;;;;;;;51.75;42.00;;;;;14.37;49.53;102508.97;4993848;27;45292;-74
2022/03/26 08:36:06;;;;;;;;;55.75;41.75;;;;;14.40;49.46;102501.34;4993307;27;45259;-74
2022/03/26 08:38:31;;;;;;;;;53.00;41.00;;;;;14.28;48.82;102466.78;4994008;27;46254;-76
2022/03/26 08:40:57;;;;;;;;;48.25;39.75;;;;;14.34;49.14;102470.63;4993729;28;45391;-73
2022/03/26 08:43:23;;;;;;;;;50.25;39.25;;;;;14.52;48.64;102485.50;4992774;27;45608;-75
2022/03/26 08:45:48;;;;;;;;;51.00;40.25;;;;;14.61;48.31;102491.22;4993865;28;45346;-74
2022/03/26 08:48:15;;;;;;;;;55.75;43.00;;;;;14.50;48.22;102461.03;4993493;27;45954;-79
2022/03/26 08:50:42;;;;;;;;;48.25;38.00;;;;;14.74;47.53;102486.72;4993826;28;45327;-76
2022/03/26 08:53:09;;;;;;;;;51.00;40.00;;;;;14.85;47.81;102501.22;4994355;28;45275;-77
2022/03/26 08:55:34;;;;;;;;;52.50;39.75;;;;;14.57;47.71;102441.44;4976349;28;45677;-78
2022/03/26 08:58:00;;;;;;;;;53.50;39.75;;;;;14.64;46.84;102443.53;4993147;28;46190;-78
2022/03/26 09:00:27;;;;;;;;;52.75;40.00;;;;;14.97;46.40;102498.38;4993366;28;45732;-75
2022/03/26 09:02:53;;;;;;;;;46.25;37.25;;;;;15.08;46.46;102498.97;4994277;27;45406;-83
2022/03/26 09:05:19;;;;;;;;;51.00;40.00;;;;;15.09;46.55;102495.53;4994528;28;45425;-77
2022/03/26 09:07:45;;;;;;;;;48.50;38.50;;;;;15.17;46.28;102497.72;5003557;28;46065;-80
2022/03/26 09:10:11;;;;;;;;;46.75;38.50;;;;;15.24;45.99;102500.69;4998159;28;45333;-81
2022/03/26 09:12:37;;;;;;;;;50.50;39.25;;;;;15.29;45.70;102507.00;4994656;28;45256;-76
2022/03/26 09:15:06;;;;;;;;;47.50;36.25;;;;;15.30;45.58;102491.47;4993660;27;45216;-80
2022/03/26 09:17:32;;;;;;;;;45.50;39.00;;;;;15.39;46.10;102491.03;4993344;28;46344;-82
2022/03/26 09:19:58;;;;;;;;;50.00;37.75;;;;;15.45;46.03;102490.44;4992886;28;45386;-79
2022/03/26 09:22:24;;;;;;;;;49.50;39.75;;;;;15.49;45.58;102497.63;4993641;27;45387;-78
2022/03/26 09:24:49;;;;;;;;;52.00;39.50;;;;;15.56;44.28;102493.63;4993405;28;45640;-74
2022/03/26 09:27:15;;;;;;;;;49.25;40.50;;;;;15.59;44.73;102492.06;4992518;28;45298;-74
2022/03/26 09:29:40;;;;;;;;;47.50;36.50;;;;;15.66;44.13;102490.66;4992615;28;45283;-77
2022/03/26 09:32:06;;;;;;;;;50.75;40.25;;;;;15.69;44.34;102487.31;4974840;28;45347;-77
2022/03/26 09:34:32;;;;;;;;;44.25;37.50;;;;;15.71;44.00;102493.50;4993141;28;45256;-82
2022/03/26 09:36:57;;;;;;;;;44.25;36.00;;;;;15.74;43.89;102491.06;4992576;28;45209;-78
2022/03/26 09:39:23;;;;;;;;;48.25;39.00;;;;;15.77;43.95;102489.50;4993108;28;45250;-80
2022/03/26 09:41:50;;;;;;;;;51.00;40.25;;;;;15.86;43.97;102496.03;4993001;28;45429;-80
2022/03/26 09:44:16;;;;;;;;;47.25;38.25;;;;;15.87;43.45;102487.38;4992979;28;45375;-81
2022/03/26 09:46:42;;;;;;;;;49.00;39.50;;;;;15.86;43.76;102472.53;4995062;28;45991;-83
2022/03/26 09:49:10;;;;;;;;;44.50;33.25;;;;;15.95;43.77;102483.41;4996535;28;45450;-75
2022/03/26 09:51:35;;;;;;;;;48.25;38.50;;;;;16.00;43.81;102489.78;4981456;28;45312;-79
2022/03/26 09:54:02;;;;;;;;;51.75;41.50;;;;;16.03;43.38;102484.72;4997658;28;45232;-77
2022/03/26 09:56:31;;;;;;;;;54.75;41.25;;;;;16.11;43.77;102489.41;4997592;27;46088;-82
2022/03/26 09:58:56;;;;;;;;;50.00;40.50;;;;;16.14;43.12;102485.22;4997387;28;45377;-74
2022/03/26 10:01:23;;;;;;;;;49.75;38.25;;;;;16.19;43.96;102488.06;4998406;27;45322;-72
2022/03/26 10:04:10;;;;;;;;;50.50;38.25;;;;;16.25;43.42;102485.78;4998072;28;45517;-73
2022/03/26 10:06:37;;;;;;;;;51.75;42.25;;;;;16.29;43.37;102490.31;4997728;28;45413;-74
2022/03/26 10:09:03;;;;;;;;;50.50;39.00;;;;;16.28;43.89;102474.56;4995777;28;45926;-75
2022/03/26 10:11:33;;;;;;;;;52.75;40.50;;;;;16.36;43.42;102474.06;4996558;27;45296;-76
2022/03/26 10:13:59;;;;;;;;;49.00;39.00;;;;;16.40;43.76;102483.00;4997040;28;45335;-81
2022/03/26 10:16:26;;;;;;;;;49.50;39.50;;;;;16.45;43.74;102478.84;4979447;28;47856;-78
2022/03/26 10:18:52;;;;;;;;;55.50;42.75;;;;;16.43;42.87;102466.53;4997122;27;45883;-73
2022/03/26 10:21:20;;;;;;;;;56.75;43.75;;;;;16.52;42.35;102474.81;4980126;28;45170;-77
2022/03/26 10:23:51;;;;;;;;;55.25;42.75;;;;;16.61;42.67;102477.84;4998118;28;45971;-73
2022/03/26 10:26:21;;;;;;;;;54.25;42.25;;;;;16.65;42.54;102478.91;4996175;28;45467;-76
2022/03/26 10:28:52;;;;;;;;;57.25;44.75;;;;;16.65;42.23;102466.72;4977380;28;45411;-76
2022/03/26 10:34:14;;;;;;;;;53.75;43.25;;;;;16.82;41.46;102472.75;4995496;28;45363;-75
2022/03/26 10:37:04;;;;;;;;;56.75;43.50;;;;;16.86;41.27;102465.91;4995473;28;45980;-74
2022/03/26 10:39:30;;;;;;;;;53.00;42.75;;;;;16.92;40.21;102467.94;4994714;28;45872;-78
2022/03/26 10:41:57;;;;;;;;;54.25;41.50;;;;;16.94;40.27;102451.50;4994808;28;45394;-74
2022/03/26 10:44:26;;;;;;;;;51.50;41.75;;;;;17.04;41.32;102457.13;4993842;28;45607;-74
2022/03/26 10:46:54;;;;;;;;;54.75;43.50;;;;;17.07;41.31;102452.94;4994929;27;46050;-73
2022/03/26 10:49:29;;;;;;;;;44.25;35.75;;;;;17.12;40.73;102458.38;4994441;28;45891;-73
2022/03/26 10:51:56;;;;;;;;;51.25;42.50;;;;;17.15;41.21;102456.81;4995158;28;45308;-73
2022/03/26 10:54:30;;;;;;;;;55.25;41.75;;;;;17.10;40.59;102436.50;4995384;28;45221;-74
2022/03/26 10:56:58;;;;;;;;;56.00;43.00;;;;;17.23;40.12;102454.50;4993484;28;45897;-73
2022/03/26 10:59:24;;;;;;;;;51.75;41.75;;;;;17.25;40.41;102441.50;4994756;28;45250;-72
2022/03/26 11:01:50;;;;;;;;;54.75;41.75;;;;;17.23;40.13;102433.56;4994659;27;45343;-72
2022/03/26 11:04:16;;;;;;;;;52.00;42.25;;;;;17.35;40.26;102435.84;4976654;28;45544;-72
2022/03/26 11:06:43;;;;;;;;;51.00;40.75;;;;;17.17;40.01;102399.28;4994454;27;45374;-72
2022/03/26 11:09:10;;;;;;;;;55.50;41.75;;;;;17.35;40.16;102420.13;4993950;27;45994;-74